»·PEaware :: N589SC KSAN-KLAX

N589SC :: KSAN-KLAX

FLIGHT INFORMATION

Flight Status: Arrived
Operator: Privately registered:
United States
More flights under this callsign
Pilot: Gregory B. (348)
Aircraft: Unknown
(LNC4)
More flights by this aircraft type
Origin: KSAN San Diego Intl-Lindbergh
United States
Destination: KLAX Los Angeles Intl
United States
More flights between these airports :: More routes between these airports
Route: +SLI
File this flight plan on PilotEdge
Remarks: / V /
Altitude:
(Current/Filed)
6,000ft
Speed:
(Current/Filed)
235kts
Departed: 28-Dec-11 06:25 PM
Arrived: 28-Dec-11 06:55 PM
Distance/Time
Traveled:
94nm/0:30
Distance/Time
To Go:
Arrived

Flight Plot

Page will automatically refresh every two minutes.


Map Options




Map Legend


Flown Route
Filed Route
Departure Airport
Arrival Airport
Navaid (VOR, NDB)
Fix

Horizontal Profiles

Position Reports

Time Latitude Longitude Heading Altitude Ground
Speed
28-Dec-11 18:16 32.733200 -117.181060 15 19ft 0kts
28-Dec-11 18:17 32.733201 -117.181060 15 19ft 0kts
28-Dec-11 18:18 32.733203 -117.181059 15 19ft 0kts
28-Dec-11 18:19 32.733204 -117.181059 15 19ft 0kts
28-Dec-11 18:20 32.733206 -117.181058 15 19ft 0kts
28-Dec-11 18:21 32.733207 -117.181058 15 19ft 0kts
28-Dec-11 18:22 32.732856 -117.180948 194 19ft 0kts
28-Dec-11 18:23 32.731202 -117.176096 106 19ft 15kts
28-Dec-11 18:24 32.731500 -117.181307 284 19ft 96kts
28-Dec-11 18:25 32.750763 -117.213630 321 1283ft 143kts
28-Dec-11 18:26 32.784929 -117.244759 322 2204ft 173kts
28-Dec-11 18:27 32.822695 -117.280156 322 3700ft 172kts
28-Dec-11 18:28 32.862535 -117.311055 348 5186ft 176kts
28-Dec-11 18:29 32.916758 -117.322818 347 5764ft 213kts
28-Dec-11 18:30 32.977306 -117.339901 346 6005ft 235kts
28-Dec-11 18:31 33.040801 -117.358569 345 6000ft 233kts
28-Dec-11 18:32 33.103832 -117.377245 345 6000ft 233kts
28-Dec-11 18:33 33.165845 -117.399427 324 6007ft 233kts
28-Dec-11 18:34 33.212737 -117.453988 315 6002ft 238kts
28-Dec-11 18:35 33.261943 -117.508536 318 5999ft 242kts
28-Dec-11 18:36 33.313055 -117.562441 319 5999ft 247kts
28-Dec-11 18:37 33.365443 -117.617113 319 6000ft 252kts
28-Dec-11 18:38 33.418730 -117.672720 318 6006ft 254kts
28-Dec-11 18:39 33.481011 -117.737867 319 6008ft 253kts
28-Dec-11 18:40 33.525096 -117.783980 319 6000ft 249kts
28-Dec-11 18:41 33.577219 -117.838578 319 5999ft 249kts
28-Dec-11 18:42 33.629315 -117.893241 319 6000ft 247kts
28-Dec-11 18:43 33.680944 -117.948151 319 6000ft 247kts
28-Dec-11 18:44 33.723698 -117.994374 319 5999ft 247kts
28-Dec-11 18:45 33.776340 -118.047712 334 5991ft 245kts
28-Dec-11 18:47 33.903481 -118.075199 352 5094ft 239kts
28-Dec-11 18:48 33.951678 -118.118639 294 4286ft 214kts
28-Dec-11 18:49 33.958170 -118.187058 261 3353ft 206kts
28-Dec-11 18:50 33.950605 -118.254481 264 2245ft 199kts
28-Dec-11 18:51 33.944845 -118.312212 263 1297ft 147kts
28-Dec-11 18:52 33.940631 -118.354386 261 615ft 114kts
28-Dec-11 18:53 33.937127 -118.387765 260 132ft 76kts
28-Dec-11 18:54 33.935625 -118.393684 173 130ft 2kts
28-Dec-11 18:55 33.934222 -118.400398 201 130ft 17kts
28-Dec-11 18:56 33.933577 -118.399187 80 130ft 0kts
28-Dec-11 18:57 33.933577 -118.399184 80 130ft 0kts
28-Dec-11 18:58 33.933578 -118.399183 80 130ft 0kts
28-Dec-11 18:59 33.933578 -118.399181 80 130ft 0kts
28-Dec-11 19:00 33.933578 -118.399179 80 130ft 0kts
28-Dec-11 19:01 33.933578 -118.399177 79 130ft 0kts
28-Dec-11 19:02 33.933579 -118.399175 79 130ft 0kts
28-Dec-11 19:03 33.933579 -118.399173 79 130ft 0kts
28-Dec-11 19:04 33.933579 -118.399171 79 130ft 0kts
28-Dec-11 19:05 33.933580 -118.399170 79 130ft 0kts
28-Dec-11 19:06 33.933580 -118.399168 79 130ft 0kts
28-Dec-11 19:07 33.933580 -118.399166 79 130ft 0kts
28-Dec-11 19:08 33.933580 -118.399164 79 130ft 0kts

Navigation Log

Ident Type
Flight plan parsing failed, navigation log unavailable